Time;durP1;ratioP1;P1;durP2;ratioP2;P2;SDS_P1;SDS_P2;PMS_P1;PMS_P2;Temp;Humidity;BMP_temperature;BMP_pressure;BME280_temperature;BME280_humidity;BME280_pressure;Samples;Min_cycle;Max_cycle;Signal;HPM_P1;HPM_P2
2021/09/18 00:00:07;;;;;;;14.17;9.27;;;16.00;99.90;;;;;;6232726;23;20509;-94
2021/09/18 00:02:39;;;;;;;12.83;9.47;;;16.00;99.90;;;;;;6226821;23;20172;-95
2021/09/18 00:05:17;;;;;;;12.27;10.40;;;16.10;99.90;;;;;;6207925;23;20340;-96
2021/09/18 00:07:48;;;;;;;10.97;9.70;;;16.10;99.90;;;;;;6207886;23;20187;-95
2021/09/18 00:10:20;;;;;;;13.17;10.53;;;16.00;99.90;;;;;;6205294;23;20180;-96
2021/09/18 00:13:35;;;;;;;16.43;10.80;;;16.00;99.90;;;;;;6218273;23;20176;-95
2021/09/18 00:16:07;;;;;;;15.80;10.00;;;16.10;99.90;;;;;;6041033;23;20192;-94
2021/09/18 00:18:39;;;;;;;12.83;9.33;;;16.20;99.90;;;;;;6029413;23;20192;-95
2021/09/18 00:21:13;;;;;;;12.43;8.70;;;16.30;99.90;;;;;;6052376;23;20205;-91
2021/09/18 00:23:45;;;;;;;10.50;8.23;;;16.40;99.90;;;;;;5999857;23;20655;-92
2021/09/18 00:26:16;;;;;;;10.23;7.57;;;16.40;99.90;;;;;;6122943;23;20181;-92
2021/09/18 00:28:48;;;;;;;9.57;7.47;;;16.50;99.90;;;;;;6203140;23;20233;-93
2021/09/18 00:34:21;;;;;;;5.80;5.20;;;16.40;99.90;;;;;;6229957;23;20203;-96
2021/09/18 00:43:55;;;;;;;5.30;4.00;;;16.40;99.90;;;;;;6230263;23;20235;-96
2021/09/18 00:50:06;;;;;;;5.90;3.90;;;16.50;99.90;;;;;;6239266;23;20164;-96
2021/09/18 00:52:37;;;;;;;7.23;3.73;;;16.60;99.90;;;;;;6234237;23;20184;-96
2021/09/18 00:55:10;;;;;;;5.20;3.43;;;16.80;99.90;;;;;;6238385;23;20207;-96
2021/09/18 01:00:44;;;;;;;3.83;3.00;;;16.70;99.90;;;;;;6178355;23;20523;-96
2021/09/18 01:03:15;;;;;;;5.03;2.60;;;16.80;99.90;;;;;;6214346;23;20210;-96
2021/09/18 01:13:47;;;;;;;3.60;2.40;;;17.10;99.90;;;;;;6165185;23;20232;-96
2021/09/18 01:16:32;;;;;;;2.93;2.43;;;17.20;99.90;;;;;;6228525;23;20201;-96
2021/09/18 01:19:06;;;;;;;2.73;2.23;;;17.30;99.90;;;;;;6228936;23;20187;-96
2021/09/18 01:21:40;;;;;;;3.83;1.70;;;17.40;99.90;;;;;;6237801;23;20156;-96
2021/09/18 01:32:19;;;;;;;4.93;1.50;;;17.80;99.90;;;;;;6184528;23;20281;-96
2021/09/18 01:40:09;;;;;;;2.33;1.50;;;18.10;99.90;;;;;;6221199;23;20219;-96
2021/09/18 01:42:46;;;;;;;3.73;1.90;;;18.10;99.90;;;;;;6219880;23;20176;-96
2021/09/18 01:45:20;;;;;;;1.50;1.30;;;18.30;99.90;;;;;;6230730;23;20179;-96
2021/09/18 01:48:01;;;;;;;1.70;1.40;;;18.40;99.90;;;;;;6232788;23;20173;-96
2021/09/18 01:50:38;;;;;;;2.13;1.27;;;18.50;99.90;;;;;;6234438;23;20248;-96
2021/09/18 01:53:13;;;;;;;1.40;1.30;;;18.50;99.90;;;;;;6233638;23;20239;-96
2021/09/18 01:55:51;;;;;;;3.37;1.50;;;18.50;99.90;;;;;;6210775;23;20197;-96
2021/09/18 01:58:24;;;;;;;1.13;1.03;;;18.60;99.90;;;;;;6240547;23;20198;-96
2021/09/18 02:01:02;;;;;;;6.30;1.70;;;18.70;99.90;;;;;;6196634;23;20205;-96
2021/09/18 02:08:54;;;;;;;4.93;1.53;;;18.90;99.90;;;;;;6231281;22;20215;-91
2021/09/18 02:11:37;;;;;;;2.23;1.03;;;19.00;99.90;;;;;;6178158;23;20185;-96
2021/09/18 02:16:56;;;;;;;3.07;1.40;;;19.20;99.90;;;;;;6235338;23;20214;-96
2021/09/18 02:19:30;;;;;;;2.97;1.50;;;19.20;99.90;;;;;;6236569;23;20180;-96
2021/09/18 02:22:05;;;;;;;3.80;1.60;;;19.30;99.90;;;;;;6238066;23;20176;-96
2021/09/18 02:24:45;;;;;;;2.70;1.60;;;19.30;99.90;;;;;;6238607;23;20241;-96
2021/09/18 02:27:17;;;;;;;3.27;1.60;;;19.40;99.90;;;;;;6214009;23;20215;-96
2021/09/18 02:35:08;;;;;;;1.40;1.20;;;19.40;99.90;;;;;;6229718;23;20302;-96
2021/09/18 02:37:41;;;;;;;5.33;1.60;;;19.30;99.90;;;;;;6230582;23;20255;-96
2021/09/18 02:40:16;;;;;;;1.50;1.30;;;19.40;99.90;;;;;;6237709;23;20190;-96
2021/09/18 02:42:52;;;;;;;2.27;1.43;;;19.40;99.90;;;;;;6241628;23;20172;-96
2021/09/18 02:45:24;;;;;;;4.73;1.80;;;19.40;99.90;;;;;;6237654;23;20369;-96
2021/09/18 02:47:58;;;;;;;2.93;1.60;;;19.20;99.90;;;;;;6235200;23;20176;-96
2021/09/18 02:50:30;;;;;;;2.43;1.67;;;19.40;99.90;;;;;;6233279;23;20182;-95
2021/09/18 02:53:04;;;;;;;2.30;1.50;;;19.30;99.90;;;;;;6237186;23;20191;-96
2021/09/18 02:55:42;;;;;;;7.03;2.00;;;19.40;99.90;;;;;;6235926;23;20216;-96
2021/09/18 02:58:28;;;;;;;1.80;1.57;;;19.30;99.90;;;;;;6231774;23;20196;-96
2021/09/18 03:03:45;;;;;;;2.53;1.50;;;18.90;99.90;;;;;;6241525;23;20175;-95
2021/09/18 03:06:18;;;;;;;2.27;1.87;;;18.70;99.90;;;;;;6241399;23;20188;-95
2021/09/18 03:44:02;;;;;;;2.47;1.50;;;19.00;99.90;;;;;;6246003;22;20214;-96
2021/09/18 03:46:44;;;;;;;1.93;1.70;;;19.00;99.90;;;;;;6240228;23;20167;-96
2021/09/18 04:08:13;;;;;;;2.53;1.67;;;19.20;99.90;;;;;;6162001;23;20215;-96
2021/09/18 04:10:49;;;;;;;3.23;1.60;;;19.20;99.90;;;;;;6241044;23;20163;-96
2021/09/18 04:13:22;;;;;;;3.37;1.63;;;19.30;99.90;;;;;;6238740;23;20180;-96
2021/09/18 04:43:43;;;;;;;1.70;1.20;;;19.90;99.90;;;;;;6149287;23;21676;31
2021/09/18 04:46:15;;;;;;;3.23;1.50;;;19.90;99.90;;;;;;6176209;23;20223;-96
2021/09/18 04:48:48;;;;;;;3.87;1.27;;;19.80;99.90;;;;;;6162920;23;20174;-96
2021/09/18 04:51:34;;;;;;;2.27;1.47;;;19.80;99.90;;;;;;6172263;23;20193;-93
2021/09/18 04:54:06;;;;;;;2.93;1.50;;;19.60;99.90;;;;;;6172941;23;20197;-90
2021/09/18 04:56:38;;;;;;;3.43;1.40;;;19.50;99.90;;;;;;6178998;23;20231;-94
2021/09/18 04:59:15;;;;;;;1.83;1.30;;;19.50;99.90;;;;;;6162727;23;20173;-95
2021/09/18 05:01:47;;;;;;;2.93;1.30;;;19.50;99.90;;;;;;6158321;23;20178;-94
2021/09/18 05:04:18;;;;;;;1.70;1.30;;;19.60;99.90;;;;;;6163259;23;20178;-96
2021/09/18 05:06:50;;;;;;;7.00;3.93;;;19.60;99.90;;;;;;6166234;23;20216;-95
2021/09/18 05:09:22;;;;;;;2.10;1.30;;;19.90;99.90;;;;;;6179814;23;20168;-94
2021/09/18 05:11:53;;;;;;;2.63;1.30;;;19.80;99.90;;;;;;6180145;23;20177;-96
2021/09/18 05:14:26;;;;;;;3.30;1.37;;;19.60;99.90;;;;;;6181607;23;20226;-95
2021/09/18 05:16:58;;;;;;;2.43;1.50;;;19.20;99.90;;;;;;6181692;23;20276;-95
2021/09/18 05:19:30;;;;;;;1.73;1.37;;;18.90;99.90;;;;;;6180625;23;20209;-96
2021/09/18 05:22:01;;;;;;;2.90;1.37;;;18.60;99.90;;;;;;6180032;23;20170;-95
2021/09/18 05:24:33;;;;;;;2.37;1.60;;;18.30;99.90;;;;;;6162153;23;20181;-95
2021/09/18 05:27:06;;;;;;;4.73;1.70;;;18.10;99.90;;;;;;6157671;23;20174;-95
2021/09/18 05:29:43;;;;;;;4.23;1.60;;;17.70;99.90;;;;;;6160283;23;20178;-95
2021/09/18 05:32:14;;;;;;;6.07;1.97;;;17.40;99.90;;;;;;6159316;23;20184;-95
2021/09/18 05:34:46;;;;;;;10.97;2.53;;;17.20;99.90;;;;;;6161955;23;20182;-94
2021/09/18 05:37:17;;;;;;;4.00;1.37;;;17.00;99.90;;;;;;6158468;23;20201;-95
2021/09/18 05:39:49;;;;;;;11.27;1.47;;;16.70;99.90;;;;;;6162634;23;20204;-93
2021/09/18 05:42:20;;;;;;;3.47;2.23;;;16.50;99.90;;;;;;6174130;23;20204;-94
2021/09/18 05:44:54;;;;;;;2.93;1.17;;;16.30;99.90;;;;;;6180614;23;20193;-94
2021/09/18 05:47:25;;;;;;;5.20;1.10;;;16.10;99.90;;;;;;6177349;23;20186;-93
2021/09/18 05:49:56;;;;;;;4.43;3.30;;;16.00;99.90;;;;;;6162404;23;20185;-93
2021/09/18 05:52:27;;;;;;;3.80;0.87;;;15.90;99.90;;;;;;6158388;23;20188;-93
2021/09/18 05:54:59;;;;;;;5.80;1.40;;;15.70;99.90;;;;;;6160462;23;20647;-92
2021/09/18 05:57:30;;;;;;;2.87;0.80;;;15.60;99.90;;;;;;6164823;23;20220;-93
2021/09/18 06:00:03;;;;;;;2.13;0.67;;;15.50;99.90;;;;;;6160369;23;20185;-92
2021/09/18 06:02:35;;;;;;;3.43;0.73;;;15.50;99.90;;;;;;6160664;23;20184;-92
2021/09/18 06:05:08;;;;;;;2.37;0.60;;;15.40;99.90;;;;;;6160499;23;20629;-92
2021/09/18 06:07:40;;;;;;;3.20;0.77;;;15.40;99.90;;;;;;6159723;23;20178;-92
2021/09/18 06:10:13;;;;;;;2.77;0.60;;;15.30;99.90;;;;;;6160996;23;20167;-92
2021/09/18 06:12:45;;;;;;;1.40;0.53;;;15.30;99.90;;;;;;6159345;23;20636;-93
2021/09/18 06:15:18;;;;;;;1.93;0.63;;;15.20;99.90;;;;;;6160423;23;20562;-92
2021/09/18 06:17:49;;;;;;;1.33;0.70;;;15.20;99.90;;;;;;6159809;23;20225;-93
2021/09/18 06:20:20;;;;;;;2.40;0.67;;;15.20;99.90;;;;;;6160548;23;20184;-93
2021/09/18 06:22:51;;;;;;;1.40;0.43;;;15.10;99.90;;;;;;6159771;23;20188;-92
2021/09/18 06:25:25;;;;;;;1.53;0.47;;;15.10;99.90;;;;;;6159725;23;20182;-93
2021/09/18 06:27:56;;;;;;;1.43;0.43;;;15.10;99.90;;;;;;6159687;23;20233;-92
2021/09/18 06:30:32;;;;;;;1.67;0.40;;;15.00;99.90;;;;;;6160467;23;20182;-92
2021/09/18 06:33:05;;;;;;;1.10;0.40;;;15.00;99.90;;;;;;6159597;23;20177;-93
2021/09/18 06:35:36;;;;;;;1.73;0.50;;;14.90;99.90;;;;;;6159936;23;20180;-93
2021/09/18 06:38:07;;;;;;;2.13;0.70;;;14.90;99.90;;;;;;6157725;23;20206;-93
2021/09/18 06:40:39;;;;;;;1.80;0.80;;;14.90;99.90;;;;;;6169498;23;20180;-92
2021/09/18 06:43:11;;;;;;;3.43;3.23;;;14.80;99.90;;;;;;6173122;23;20181;-93
2021/09/18 06:45:44;;;;;;;2.30;0.50;;;14.80;99.90;;;;;;6170834;23;20185;-93
2021/09/18 06:48:17;;;;;;;2.27;2.10;;;14.70;99.90;;;;;;6171866;23;20177;-93
2021/09/18 06:50:48;;;;;;;5.00;0.70;;;14.60;99.90;;;;;;6158369;23;20174;-92
2021/09/18 06:53:20;;;;;;;1.60;0.47;;;14.60;99.90;;;;;;6159980;23;20173;-92
2021/09/18 06:55:53;;;;;;;2.13;0.77;;;14.50;99.90;;;;;;6159847;23;20185;-91
2021/09/18 06:58:24;;;;;;;2.17;0.60;;;14.40;99.90;;;;;;6158633;23;20201;-92
2021/09/18 07:01:06;;;;;;;2.00;0.60;;;14.40;99.90;;;;;;6158418;23;20182;-93
2021/09/18 07:03:39;;;;;;;0.93;0.70;;;14.40;99.90;;;;;;6159509;23;20232;-92
2021/09/18 07:06:10;;;;;;;0.87;0.83;;;14.30;99.90;;;;;;6159509;23;20170;-94
2021/09/18 07:08:42;;;;;;;1.40;0.60;;;14.30;99.90;;;;;;6159399;23;20186;-92
2021/09/18 07:11:14;;;;;;;2.23;0.70;;;14.30;99.90;;;;;;6158463;23;20629;-92
2021/09/18 07:13:45;;;;;;;3.57;0.93;;;14.30;99.90;;;;;;6158667;23;20185;-92
2021/09/18 07:16:19;;;;;;;2.50;0.60;;;14.30;99.90;;;;;;6158037;23;20185;-93
2021/09/18 07:18:52;;;;;;;0.93;0.43;;;14.20;99.90;;;;;;6159937;23;20260;-94
2021/09/18 07:21:23;;;;;;;1.27;0.53;;;14.20;99.90;;;;;;6159088;23;20504;-93
2021/09/18 07:23:54;;;;;;;2.20;0.50;;;14.20;99.90;;;;;;6159098;23;20629;-94
2021/09/18 07:26:25;;;;;;;1.10;0.60;;;14.20;99.90;;;;;;6159251;23;20678;-94
2021/09/18 07:28:57;;;;;;;2.83;0.50;;;14.10;99.90;;;;;;6159743;23;20180;-94
2021/09/18 07:31:30;;;;;;;8.93;8.33;;;14.20;99.90;;;;;;6159144;23;20174;-94
2021/09/18 07:34:01;;;;;;;2.20;0.80;;;14.10;99.90;;;;;;6160005;23;20555;-93
2021/09/18 07:36:32;;;;;;;2.33;0.77;;;14.10;99.90;;;;;;6159093;23;20895;-94
2021/09/18 07:39:04;;;;;;;0.73;0.50;;;14.10;99.90;;;;;;6159900;23;20178;-94
2021/09/18 07:41:35;;;;;;;2.60;2.40;;;14.10;99.90;;;;;;6158448;23;20174;-95
2021/09/18 07:44:07;;;;;;;5.67;0.80;;;14.10;99.90;;;;;;6160604;23;20153;-94
2021/09/18 07:46:40;;;;;;;1.00;0.70;;;14.00;99.90;;;;;;6161955;23;20177;-94
2021/09/18 07:49:12;;;;;;;2.23;0.70;;;14.00;99.90;;;;;;6164076;23;20177;-94
2021/09/18 07:51:43;;;;;;;2.77;0.80;;;14.00;99.90;;;;;;6160867;23;20322;-93
2021/09/18 07:54:14;;;;;;;3.70;0.80;;;14.00;99.90;;;;;;6160216;23;20173;-93
2021/09/18 07:56:49;;;;;;;1.03;0.83;;;13.90;99.90;;;;;;6168573;23;20213;-94
2021/09/18 07:59:21;;;;;;;3.10;1.07;;;13.90;99.90;;;;;;6182171;23;20309;-94
2021/09/18 08:01:54;;;;;;;2.40;1.07;;;13.80;99.90;;;;;;6180900;23;20182;-95
2021/09/18 08:04:25;;;;;;;3.10;1.17;;;13.80;99.90;;;;;;6165820;23;20177;-93
2021/09/18 08:06:58;;;;;;;6.43;1.30;;;13.80;99.90;;;;;;6161325;23;20178;-94
2021/09/18 08:09:29;;;;;;;1.97;1.20;;;13.80;99.90;;;;;;6159933;23;20620;-94
2021/09/18 08:12:01;;;;;;;1.83;0.90;;;13.80;99.90;;;;;;6157963;23;20180;-93
2021/09/18 08:14:32;;;;;;;2.53;0.93;;;13.80;99.90;;;;;;6159573;23;20236;-93
2021/09/18 08:17:05;;;;;;;1.70;1.00;;;13.70;99.90;;;;;;6159188;23;20228;-93
2021/09/18 08:19:36;;;;;;;1.87;1.00;;;13.70;99.90;;;;;;6159129;23;20552;-94
2021/09/18 08:22:08;;;;;;;3.50;0.90;;;13.70;99.90;;;;;;6158269;23;20178;-94
2021/09/18 08:24:39;;;;;;;2.10;0.97;;;13.60;99.90;;;;;;6158862;23;20257;-94
2021/09/18 08:27:10;;;;;;;1.83;0.70;;;13.60;99.90;;;;;;6158263;23;20214;-93
2021/09/18 08:29:42;;;;;;;2.33;1.60;;;13.60;99.90;;;;;;6158826;23;20166;-94
2021/09/18 08:32:17;;;;;;;1.67;0.93;;;13.50;99.90;;;;;;6157918;23;20232;-94
2021/09/18 08:34:49;;;;;;;1.20;0.87;;;13.50;99.90;;;;;;6157852;23;20494;-94
2021/09/18 08:37:20;;;;;;;2.60;0.90;;;13.50;99.90;;;;;;6157477;23;20197;-94
2021/09/18 08:39:52;;;;;;;1.33;0.80;;;13.50;99.90;;;;;;6158184;23;20178;-94
2021/09/18 08:42:26;;;;;;;4.03;2.50;;;13.50;99.90;;;;;;6157748;23;20951;-95
2021/09/18 08:44:58;;;;;;;2.17;0.80;;;13.50;99.90;;;;;;6157229;23;20185;-94
2021/09/18 08:47:32;;;;;;;4.90;4.50;;;13.50;99.90;;;;;;6158574;23;20185;-94
2021/09/18 08:50:05;;;;;;;2.27;1.07;;;13.50;99.90;;;;;;6158390;23;20256;-92
2021/09/18 08:52:36;;;;;;;2.97;0.73;;;13.50;99.90;;;;;;6157063;23;20277;-92
2021/09/18 08:55:08;;;;;;;1.43;0.80;;;13.50;99.90;;;;;;6157842;23;20264;-93
2021/09/18 08:57:42;;;;;;;2.47;0.90;;;13.50;99.90;;;;;;6158602;23;20200;-93
2021/09/18 09:00:48;;;;;;;0.83;0.70;;;13.50;99.90;;;;;;6157691;23;20675;-92
2021/09/18 09:03:28;;;;;;;1.27;0.83;;;13.50;99.90;;;;;;6158390;23;20236;-92
2021/09/18 09:06:08;;;;;;;0.90;0.63;;;13.50;99.90;;;;;;6158278;23;20173;-92
2021/09/18 09:08:42;;;;;;;0.77;0.63;;;13.40;99.90;;;;;;6158615;23;20169;-92
2021/09/18 09:11:19;;;;;;;1.10;0.83;;;13.40;99.90;;;;;;6156857;23;20185;-93
2021/09/18 09:13:59;;;;;;;1.77;1.60;;;13.40;99.90;;;;;;6157439;23;20204;-93
2021/09/18 09:16:34;;;;;;;1.37;0.60;;;13.30;99.90;;;;;;6156722;23;20177;-93
2021/09/18 09:19:19;;;;;;;2.00;1.00;;;13.30;99.90;;;;;;6158520;23;20197;-93
2021/09/18 09:21:53;;;;;;;2.93;0.53;;;13.30;99.90;;;;;;6157528;23;20465;-93
2021/09/18 09:24:26;;;;;;;1.13;0.60;;;13.30;99.90;;;;;;6159149;23;20185;-94
2021/09/18 09:27:09;;;;;;;1.87;1.77;;;13.30;99.90;;;;;;6161168;23;20167;-94
2021/09/18 09:29:46;;;;;;;15.80;12.57;;;13.30;99.90;;;;;;6159031;23;20236;-93
2021/09/18 09:32:32;;;;;;;1.00;0.80;;;13.30;99.90;;;;;;6155638;23;20189;-93
2021/09/18 09:35:10;;;;;;;1.77;0.60;;;13.30;99.90;;;;;;6158398;23;20192;-94
2021/09/18 09:37:52;;;;;;;0.60;0.40;;;13.30;99.90;;;;;;6159346;23;20708;-92
2021/09/18 09:40:34;;;;;;;0.70;0.50;;;13.20;99.90;;;;;;6157734;23;20178;-93
2021/09/18 09:43:06;;;;;;;0.83;0.60;;;13.20;99.90;;;;;;6155935;23;20201;-92
2021/09/18 09:45:38;;;;;;;0.73;0.60;;;13.20;99.90;;;;;;6157491;23;20647;-93
2021/09/18 09:48:11;;;;;;;0.60;0.50;;;13.20;99.90;;;;;;6158202;23;20280;-93
2021/09/18 09:50:45;;;;;;;1.13;0.53;;;13.20;99.90;;;;;;6157459;23;20571;-91
2021/09/18 09:53:30;;;;;;;2.20;0.70;;;13.20;99.90;;;;;;6157682;23;20196;-93
2021/09/18 09:56:06;;;;;;;0.60;0.60;;;13.10;99.90;;;;;;6158221;23;20228;-92
2021/09/18 09:58:55;;;;;;;0.97;0.70;;;13.10;99.90;;;;;;6157832;23;20217;-93
2021/09/18 10:01:28;;;;;;;0.90;0.70;;;13.10;99.90;;;;;;6155955;23;20178;-92
2021/09/18 10:03:59;;;;;;;1.37;0.70;;;13.10;99.90;;;;;;6158467;23;20177;-93
2021/09/18 10:06:33;;;;;;;1.70;0.70;;;13.00;99.90;;;;;;6167283;23;20209;-93
2021/09/18 10:09:05;;;;;;;0.83;0.60;;;13.00;99.90;;;;;;6157997;23;20198;-93
2021/09/18 10:11:36;;;;;;;0.77;0.70;;;13.00;99.90;;;;;;6170122;23;20182;-93
2021/09/18 10:14:08;;;;;;;0.50;0.50;;;13.00;99.90;;;;;;6179890;23;20212;-93
2021/09/18 10:16:40;;;;;;;0.93;0.60;;;13.00;99.90;;;;;;6180899;23;20180;-94
2021/09/18 10:19:13;;;;;;;0.70;0.70;;;13.00;99.90;;;;;;6162207;23;20675;-93
2021/09/18 10:24:39;;;;;;;1.00;0.80;;;13.00;99.90;;;;;;6160239;23;20167;-94
2021/09/18 10:27:20;;;;;;;0.77;0.50;;;13.00;99.90;;;;;;6157914;23;20208;-93
2021/09/18 10:29:52;;;;;;;0.73;0.50;;;13.00;99.90;;;;;;6158324;23;20202;-93
2021/09/18 10:32:25;;;;;;;2.63;0.70;;;12.90;99.90;;;;;;6157609;23;20182;-93
2021/09/18 10:35:14;;;;;;;1.03;0.63;;;12.90;99.90;;;;;;6158133;23;20170;-94
2021/09/18 10:37:47;;;;;;;0.83;0.80;;;12.90;99.90;;;;;;6160186;23;20171;-93
2021/09/18 10:40:20;;;;;;;0.70;0.50;;;12.90;99.90;;;;;;6180587;23;20210;-94
2021/09/18 10:42:52;;;;;;;0.80;0.70;;;12.90;99.90;;;;;;6180695;23;20188;-93
2021/09/18 10:45:41;;;;;;;0.90;0.80;;;12.90;99.90;;;;;;6181260;23;20487;-94
2021/09/18 10:48:36;;;;;;;1.23;0.60;;;12.90;99.90;;;;;;6183336;23;20189;-93
2021/09/18 10:51:09;;;;;;;1.50;0.60;;;12.90;99.90;;;;;;6182460;23;20193;-92
2021/09/18 10:54:08;;;;;;;1.47;0.70;;;12.90;99.90;;;;;;6182485;23;20165;-93
2021/09/18 10:57:03;;;;;;;1.27;0.80;;;12.90;99.90;;;;;;6161365;23;20205;-93
2021/09/18 10:59:54;;;;;;;0.90;0.60;;;12.90;99.90;;;;;;6161084;23;20272;-93
2021/09/18 11:02:50;;;;;;;6.27;5.87;;;12.90;99.90;;;;;;6159774;23;20192;-94
2021/09/18 11:05:46;;;;;;;1.80;0.70;;;12.90;99.90;;;;;;6176703;23;20233;-94
2021/09/18 11:08:46;;;;;;;1.20;0.60;;;12.80;99.90;;;;;;6181247;23;20178;-93
2021/09/18 11:11:27;;;;;;;0.50;0.50;;;12.80;99.90;;;;;;6176017;23;20165;-93
2021/09/18 11:14:00;;;;;;;1.83;0.60;;;12.70;99.90;;;;;;6177430;23;20177;-93
2021/09/18 11:16:36;;;;;;;1.73;0.53;;;12.70;99.90;;;;;;6172741;23;20185;-93
2021/09/18 11:19:11;;;;;;;0.70;0.67;;;12.70;99.90;;;;;;6160537;23;20272;-93
2021/09/18 11:21:45;;;;;;;0.90;0.67;;;12.70;99.90;;;;;;6159769;23;20173;-93
2021/09/18 11:24:28;;;;;;;0.67;0.60;;;12.70;99.90;;;;;;6160147;23;20205;-94
2021/09/18 11:27:02;;;;;;;1.00;0.50;;;12.70;99.90;;;;;;6160180;23;20201;-93
2021/09/18 11:29:35;;;;;;;1.63;0.80;;;12.60;99.90;;;;;;6160035;23;20192;-93
2021/09/18 11:32:17;;;;;;;0.63;0.63;;;12.70;99.90;;;;;;6158986;23;20225;-93
2021/09/18 11:34:51;;;;;;;1.23;0.80;;;12.60;99.90;;;;;;6159014;23;20173;-93
2021/09/18 11:37:28;;;;;;;1.77;0.70;;;12.60;99.90;;;;;;6159744;23;20202;-94
2021/09/18 11:40:02;;;;;;;0.50;0.50;;;12.60;99.90;;;;;;6159712;23;20652;-93
2021/09/18 11:42:46;;;;;;;1.13;0.60;;;12.50;99.90;;;;;;6158561;23;20170;-94
2021/09/18 11:45:20;;;;;;;1.87;0.53;;;12.50;99.90;;;;;;6158880;23;20186;-93
2021/09/18 11:47:53;;;;;;;1.10;0.70;;;12.50;99.90;;;;;;6158693;23;20224;-93
2021/09/18 11:50:27;;;;;;;1.07;0.80;;;12.50;99.90;;;;;;6159403;23;20166;-93
2021/09/18 11:53:00;;;;;;;0.70;0.70;;;12.50;99.90;;;;;;6159258;23;20221;-93
2021/09/18 11:55:35;;;;;;;1.13;0.73;;;12.50;99.90;;;;;;6158741;23;20170;-94
2021/09/18 11:58:11;;;;;;;1.03;0.50;;;12.50;99.90;;;;;;6158829;23;20201;-93
2021/09/18 12:00:46;;;;;;;2.00;0.63;;;12.50;99.90;;;;;;6160391;23;20225;-92
2021/09/18 12:03:24;;;;;;;1.50;0.90;;;12.50;99.90;;;;;;6159994;23;20166;-93
2021/09/18 12:05:57;;;;;;;1.57;0.60;;;12.40;99.90;;;;;;6159069;23;20181;-92
2021/09/18 12:08:31;;;;;;;1.90;0.70;;;12.40;99.90;;;;;;6161891;23;20181;-93
2021/09/18 12:11:11;;;;;;;1.80;0.70;;;12.40;99.90;;;;;;6160757;23;20184;-92
2021/09/18 12:13:46;;;;;;;1.73;0.70;;;12.50;99.90;;;;;;6161635;23;20177;-92
2021/09/18 12:16:19;;;;;;;1.27;0.60;;;12.40;99.90;;;;;;6159142;23;20256;-91
2021/09/18 12:18:51;;;;;;;1.17;0.60;;;12.40;99.90;;;;;;6161768;23;20184;-92
2021/09/18 12:21:24;;;;;;;1.03;0.93;;;12.40;99.90;;;;;;6170364;23;20182;-92
2021/09/18 12:23:59;;;;;;;1.73;0.83;;;12.40;99.90;;;;;;6159785;23;20170;-92
2021/09/18 12:26:32;;;;;;;1.00;0.60;;;12.40;99.90;;;;;;6173321;23;20170;-93
2021/09/18 12:29:10;;;;;;;0.97;0.50;;;12.50;99.90;;;;;;6169043;23;20166;-93
2021/09/18 12:31:43;;;;;;;0.63;0.47;;;12.60;99.90;;;;;;6168929;23;20515;-92
2021/09/18 12:34:18;;;;;;;1.67;0.87;;;12.60;99.90;;;;;;6159337;23;20210;-93
2021/09/18 12:36:51;;;;;;;2.97;1.03;;;12.60;99.90;;;;;;6159454;23;20177;-93
2021/09/18 12:39:27;;;;;;;0.87;0.70;;;12.60;99.90;;;;;;6158480;23;20276;-93
2021/09/18 12:42:05;;;;;;;2.40;0.87;;;12.60;99.90;;;;;;6158189;23;20177;-94
2021/09/18 12:44:41;;;;;;;0.97;0.70;;;12.60;99.90;;;;;;6158431;23;20216;-94
2021/09/18 12:47:25;;;;;;;1.60;0.60;;;12.60;99.90;;;;;;6158353;23;20184;-93
2021/09/18 12:49:56;;;;;;;0.70;0.53;;;12.60;99.90;;;;;;6158799;23;20261;-93
2021/09/18 12:52:33;;;;;;;0.87;0.87;;;12.60;99.90;;;;;;6158004;23;20197;-93
2021/09/18 12:55:05;;;;;;;0.90;0.70;;;12.60;99.90;;;;;;6157707;23;20293;-93
2021/09/18 12:57:36;;;;;;;1.60;1.50;;;12.60;99.90;;;;;;6157569;23;20560;-93
2021/09/18 13:00:13;;;;;;;3.93;3.63;;;12.60;99.90;;;;;;6158942;23;20206;-93
2021/09/18 13:02:45;;;;;;;0.80;0.70;;;12.60;99.90;;;;;;6158425;23;20216;-93
2021/09/18 13:05:21;;;;;;;1.07;0.60;;;12.60;99.90;;;;;;6159028;23;20184;-94
2021/09/18 13:07:57;;;;;;;1.37;0.80;;;12.60;99.90;;;;;;6158605;23;20184;-94
2021/09/18 13:10:29;;;;;;;2.07;0.80;;;12.60;99.90;;;;;;6158164;23;20180;-93
2021/09/18 13:13:01;;;;;;;3.23;0.80;;;12.60;99.90;;;;;;6157453;23;20189;-93
2021/09/18 13:15:36;;;;;;;2.03;0.97;;;12.60;99.90;;;;;;6158419;23;20625;-93
2021/09/18 13:18:07;;;;;;;1.30;0.90;;;12.60;99.90;;;;;;6158326;23;20181;-93
2021/09/18 13:20:38;;;;;;;7.03;4.80;;;12.60;99.90;;;;;;6158202;23;20324;-94
2021/09/18 13:23:11;;;;;;;4.07;1.20;;;12.60;99.90;;;;;;6158382;23;20185;-93
2021/09/18 13:25:42;;;;;;;3.70;1.20;;;12.60;99.90;;;;;;6158575;23;20620;-94
2021/09/18 13:28:14;;;;;;;6.90;1.53;;;12.60;99.90;;;;;;6158800;23;20240;-95
2021/09/18 13:30:47;;;;;;;8.87;1.53;;;12.50;99.90;;;;;;6157469;23;20181;-94
2021/09/18 13:33:19;;;;;;;8.53;1.87;;;12.50;99.90;;;;;;6159458;23;20188;-93
2021/09/18 13:35:50;;;;;;;9.57;2.43;;;12.50;99.90;;;;;;6158576;23;20182;-93
2021/09/18 13:38:21;;;;;;;11.00;2.20;;;12.50;99.90;;;;;;6159480;23;20184;-94
2021/09/18 13:40:52;;;;;;;8.60;2.07;;;12.50;99.90;;;;;;6157994;23;20216;-93
2021/09/18 13:43:23;;;;;;;7.27;1.93;;;12.50;99.90;;;;;;6159883;23;20184;-94
2021/09/18 13:45:56;;;;;;;7.20;1.70;;;12.50;99.90;;;;;;6159696;23;20229;-93
2021/09/18 13:48:28;;;;;;;11.20;2.30;;;12.40;99.90;;;;;;6159980;23;20173;-92
2021/09/18 13:50:59;;;;;;;7.17;1.70;;;12.40;99.90;;;;;;6172699;23;20193;-94
2021/09/18 13:53:30;;;;;;;8.37;1.90;;;12.40;99.90;;;;;;6179174;23;20162;-91
2021/09/18 13:56:01;;;;;;;9.00;1.90;;;12.40;99.90;;;;;;6179173;23;20169;-93
2021/09/18 13:58:33;;;;;;;4.33;1.40;;;12.40;99.90;;;;;;6170233;23;20181;-93
2021/09/18 14:01:06;;;;;;;5.60;4.27;;;12.40;99.90;;;;;;6163926;23;20211;-93
2021/09/18 14:03:37;;;;;;;4.40;1.30;;;12.40;99.90;;;;;;6166159;23;20193;-94
2021/09/18 14:06:10;;;;;;;4.77;0.93;;;12.40;99.90;;;;;;6165370;23;20252;-94
2021/09/18 14:08:41;;;;;;;3.13;1.10;;;12.40;99.90;;;;;;6165748;23;20192;-94
2021/09/18 14:11:12;;;;;;;6.13;1.53;;;12.40;99.90;;;;;;6164033;23;20205;-93
2021/09/18 14:13:43;;;;;;;3.10;1.03;;;12.40;99.90;;;;;;6163194;23;20174;-94
2021/09/18 14:16:16;;;;;;;6.27;1.47;;;12.50;99.90;;;;;;6161373;23;20601;-94
2021/09/18 14:18:48;;;;;;;4.87;1.20;;;12.60;99.90;;;;;;6181963;22;20255;-95
2021/09/18 14:21:20;;;;;;;3.17;1.10;;;12.60;99.90;;;;;;6241855;23;20200;-94
2021/09/18 14:24:04;;;;;;;4.63;1.13;;;12.60;99.90;;;;;;6242513;23;20240;-95
2021/09/18 14:26:38;;;;;;;2.83;1.13;;;12.60;99.90;;;;;;6242765;23;20243;-95
2021/09/18 14:29:12;;;;;;;2.07;0.70;;;12.60;99.90;;;;;;6243653;23;20285;-94
2021/09/18 14:31:47;;;;;;;2.03;0.83;;;12.60;99.90;;;;;;6191907;23;20180;-94
2021/09/18 14:34:18;;;;;;;1.80;0.93;;;12.70;99.90;;;;;;6241553;23;20163;-94
2021/09/18 14:36:49;;;;;;;1.60;0.80;;;12.70;99.90;;;;;;6242405;23;20164;-94
2021/09/18 14:39:20;;;;;;;2.93;1.20;;;12.70;99.90;;;;;;6242040;23;20172;-94
2021/09/18 14:41:51;;;;;;;4.10;1.30;;;12.70;99.90;;;;;;6233826;23;20219;-94
2021/09/18 14:44:22;;;;;;;4.07;1.00;;;12.70;99.90;;;;;;6232710;23;20180;-95
2021/09/18 14:46:56;;;;;;;1.73;1.03;;;12.60;99.90;;;;;;6235009;23;20180;-94
2021/09/18 14:49:28;;;;;;;2.80;1.20;;;12.60;99.90;;;;;;6235514;23;20172;-94
2021/09/18 14:51:59;;;;;;;2.80;1.10;;;12.60;99.90;;;;;;6227731;23;20184;-95
2021/09/18 14:54:30;;;;;;;1.80;0.93;;;12.50;99.90;;;;;;6226866;23;20188;-95
2021/09/18 14:57:01;;;;;;;3.43;1.20;;;12.50;99.90;;;;;;6223994;23;20598;-95
2021/09/18 14:59:32;;;;;;;2.27;1.00;;;12.50;99.90;;;;;;6221769;23;20187;-95
2021/09/18 15:02:06;;;;;;;2.13;0.90;;;12.50;99.90;;;;;;6223875;23;20200;-95
2021/09/18 15:04:41;;;;;;;1.30;0.93;;;12.50;99.90;;;;;;6236360;23;20232;-95
2021/09/18 15:07:15;;;;;;;2.17;1.00;;;12.50;99.90;;;;;;6210878;23;20175;-96
2021/09/18 15:09:47;;;;;;;2.10;1.10;;;12.50;99.90;;;;;;6235150;23;20230;-95
2021/09/18 15:12:19;;;;;;;1.87;0.90;;;12.50;99.90;;;;;;6234908;23;20217;-95
2021/09/18 15:17:51;;;;;;;3.37;1.13;;;12.60;99.90;;;;;;6236014;23;20176;-95
2021/09/18 15:20:23;;;;;;;1.03;0.80;;;12.60;99.90;;;;;;6233294;23;20203;-96
2021/09/18 15:23:02;;;;;;;2.07;0.80;;;12.60;99.90;;;;;;6235085;23;20180;-95
2021/09/18 15:25:38;;;;;;;2.00;1.00;;;12.70;99.90;;;;;;6229839;23;20172;-94
2021/09/18 15:28:11;;;;;;;1.00;0.70;;;12.70;99.90;;;;;;6231950;23;20179;-96
2021/09/18 15:30:49;;;;;;;1.50;0.70;;;12.80;99.90;;;;;;6236256;23;20195;-95
2021/09/18 15:33:30;;;;;;;2.30;1.33;;;12.70;99.90;;;;;;6205453;23;20176;-95
2021/09/18 15:36:02;;;;;;;0.97;0.53;;;12.80;99.90;;;;;;6222053;23;20587;-95
2021/09/18 15:38:34;;;;;;;2.53;0.63;;;12.90;99.90;;;;;;6228493;23;20176;-94
2021/09/18 15:41:10;;;;;;;0.60;0.50;;;12.90;99.90;;;;;;6227566;23;20202;-95
2021/09/18 15:43:45;;;;;;;2.17;0.73;;;12.90;99.90;;;;;;6235437;23;20172;-95